createdAt,value
2022-11-19T00:01:07.084Z,97196.28
2022-11-19T00:03:39.408Z,97192.63
2022-11-19T00:06:13.032Z,97191.38
2022-11-19T00:08:44.265Z,97193.53
2022-11-19T00:11:39.628Z,97190.84
2022-11-19T00:14:08.078Z,97188.91
2022-11-19T00:16:38.744Z,97181.72
2022-11-19T00:19:09.490Z,97181.72
2022-11-19T00:21:39.645Z,97186.88
2022-11-19T00:24:12.376Z,97181.81
2022-11-19T00:26:45.173Z,97183.38
2022-11-19T00:29:18.122Z,97183.38
2022-11-19T00:31:48.705Z,97164.75
2022-11-19T00:34:18.767Z,97175.19
2022-11-19T00:36:49.047Z,97177.38
2022-11-19T00:39:20.822Z,97178.81
2022-11-19T00:41:53.820Z,97186.38
2022-11-19T00:44:23.882Z,97169.53
2022-11-19T00:46:53.924Z,97171.97
2022-11-19T00:49:24.017Z,97173.47
2022-11-19T00:51:55.449Z,97175.63
2022-11-19T00:54:25.688Z,97177.72
2022-11-19T00:56:58.612Z,97180.69
2022-11-19T00:59:28.908Z,97171.69
2022-11-19T01:01:58.985Z,97162.75
2022-11-19T01:04:29.413Z,97162.38
2022-11-19T01:06:59.607Z,97162.91
2022-11-19T01:09:29.966Z,97166.63
2022-11-19T01:12:02.600Z,97166.66
2022-11-19T01:14:32.640Z,97165.13
2022-11-19T01:17:02.673Z,97168.88
2022-11-19T01:19:32.855Z,97171.69
2022-11-19T01:22:02.988Z,97169.16
2022-11-19T01:24:33.224Z,97171.78
2022-11-19T01:27:05.902Z,97172.59
2022-11-19T01:29:35.904Z,97169.81
2022-11-19T01:32:06.223Z,97168.97
2022-11-19T01:34:36.266Z,97168.78
2022-11-19T01:37:06.447Z,97168.16
2022-11-19T01:39:36.584Z,97160.00
2022-11-19T01:42:29.470Z,97164.84
2022-11-19T01:45:09.290Z,97165.06
2022-11-19T01:47:39.392Z,97165.44
2022-11-19T01:50:10.329Z,97170.44
2022-11-19T01:52:41.457Z,97175.50
2022-11-19T01:55:13.032Z,97174.31
2022-11-19T01:57:45.894Z,97174.66
2022-11-19T02:00:18.417Z,97173.59
2022-11-19T02:02:48.513Z,97184.13
2022-11-19T02:05:19.740Z,97184.28
2022-11-19T02:07:58.668Z,97180.81
2022-11-19T02:10:41.153Z,97175.59
2022-11-19T02:13:26.555Z,97183.66
2022-11-19T02:16:07.409Z,97188.53
2022-11-19T02:18:53.448Z,97188.53
2022-11-19T02:21:36.295Z,97185.03
2022-11-19T02:24:41.668Z,97183.41
2022-11-19T02:27:53.420Z,97178.66
2022-11-19T02:30:26.535Z,97178.78
2022-11-19T02:33:07.290Z,97182.25
2022-11-19T02:35:53.893Z,97184.91
2022-11-19T02:38:37.248Z,97185.50
2022-11-19T02:41:36.969Z,97187.09
2022-11-19T02:44:31.330Z,97196.63
2022-11-19T02:47:08.508Z,97191.31
2022-11-19T02:49:44.553Z,97192.88
2022-11-19T02:52:17.334Z,97190.13
2022-11-19T02:54:47.710Z,97199.22
2022-11-19T02:57:17.981Z,97189.84
2022-11-19T03:00:09.404Z,97196.44
2022-11-19T03:03:01.369Z,97192.47
2022-11-19T03:05:38.124Z,97196.91
2022-11-19T03:08:09.448Z,97205.50
2022-11-19T03:10:51.713Z,97205.13
2022-11-19T03:13:39.496Z,97201.97
2022-11-19T03:16:29.428Z,97207.81
2022-11-19T03:19:10.536Z,97199.31
2022-11-19T03:21:46.519Z,97202.06
2022-11-19T03:24:22.212Z,97204.25
2022-11-19T03:27:00.715Z,97203.63
2022-11-19T03:29:37.464Z,97207.69
2022-11-19T03:32:14.093Z,97203.78
2022-11-19T03:34:51.527Z,97210.75
2022-11-19T03:37:28.071Z,97208.28
2022-11-19T03:40:03.275Z,97205.22
2022-11-19T03:42:34.211Z,97209.91
2022-11-19T03:45:12.042Z,97217.28
2022-11-19T03:47:46.890Z,97214.59
2022-11-19T03:50:26.816Z,97220.53
2022-11-19T03:53:02.751Z,97222.84
2022-11-19T03:55:40.761Z,97227.13
2022-11-19T03:58:14.562Z,97224.72
2022-11-19T04:00:44.866Z,97228.84
2022-11-19T04:03:15.179Z,97229.91
2022-11-19T04:05:47.786Z,97225.88
2022-11-19T04:08:18.113Z,97228.66
2022-11-19T04:10:48.120Z,97230.44
2022-11-19T04:13:18.288Z,97226.06
2022-11-19T04:15:48.517Z,97226.06
2022-11-19T04:18:18.578Z,97231.06
2022-11-19T04:20:51.466Z,97236.13
2022-11-19T04:23:21.441Z,97234.06
2022-11-19T04:25:51.399Z,97231.25
2022-11-19T04:28:21.492Z,97234.78
2022-11-19T04:30:51.552Z,97231.75
2022-11-19T04:33:21.634Z,97234.72
2022-11-19T04:35:54.281Z,97232.53
2022-11-19T04:38:24.382Z,97231.25
2022-11-19T04:40:54.380Z,97228.34
2022-11-19T04:43:24.484Z,97231.72
2022-11-19T04:45:54.533Z,97234.09
2022-11-19T04:48:24.564Z,97229.81
2022-11-19T04:50:57.264Z,97234.91
2022-11-19T04:53:27.287Z,97237.41
2022-11-19T04:55:57.315Z,97233.88
2022-11-19T04:58:27.408Z,97231.38
2022-11-19T05:00:57.453Z,97234.09
2022-11-19T05:03:27.736Z,97234.47
2022-11-19T05:06:00.490Z,97238.31
2022-11-19T05:08:30.578Z,97234.84
2022-11-19T05:11:00.696Z,97239.53
2022-11-19T05:13:30.757Z,97241.38
2022-11-19T05:16:00.821Z,97241.31
2022-11-19T05:18:30.890Z,97238.59
2022-11-19T05:21:03.528Z,97239.81
2022-11-19T05:23:33.515Z,97238.56
2022-11-19T05:26:03.608Z,97233.25
2022-11-19T05:28:38.925Z,97223.41
2022-11-19T05:31:10.227Z,97233.53
2022-11-19T05:33:40.335Z,97230.22
2022-11-19T05:36:13.380Z,97235.22
2022-11-19T05:38:43.820Z,97230.94
2022-11-19T05:41:14.108Z,97236.78
2022-11-19T05:43:44.234Z,97230.94
2022-11-19T05:46:14.353Z,97238.13
2022-11-19T05:48:44.389Z,97226.03
2022-11-19T05:51:19.559Z,97231.97
2022-11-19T05:53:49.774Z,97235.75
2022-11-19T05:56:19.891Z,97239.94
2022-11-19T05:58:49.941Z,97229.66
2022-11-19T06:01:27.805Z,97237.56
2022-11-19T06:03:58.626Z,97237.66
2022-11-19T06:06:31.312Z,97240.31
2022-11-19T06:09:01.326Z,97242.88
2022-11-19T06:11:44.012Z,97240.97
2022-11-19T06:14:14.096Z,97249.09
2022-11-19T06:16:44.296Z,97256.31
2022-11-19T06:19:14.760Z,97252.44
2022-11-19T06:21:47.451Z,97262.88
2022-11-19T06:24:18.021Z,97266.34
2022-11-19T06:26:48.271Z,97254.06
2022-11-19T06:29:20.983Z,97267.41
2022-11-19T06:31:51.207Z,97263.97
2022-11-19T06:34:21.307Z,97264.34
2022-11-19T06:36:53.923Z,97262.69
2022-11-19T06:39:23.933Z,97268.25
2022-11-19T06:41:53.982Z,97271.69
2022-11-19T06:44:24.758Z,97268.78
2022-11-19T06:46:54.799Z,97264.47
2022-11-19T06:49:25.227Z,97275.53
2022-11-19T06:51:58.132Z,97282.34
2022-11-19T06:54:28.155Z,97281.97
2022-11-19T06:56:58.216Z,97286.22
2022-11-19T06:59:28.224Z,97289.56
2022-11-19T07:01:58.427Z,97295.69
2022-11-19T07:04:28.484Z,97297.03
2022-11-19T07:07:01.196Z,97294.72
2022-11-19T07:09:31.276Z,97304.72
2022-11-19T07:12:01.364Z,97310.56
2022-11-19T07:14:31.409Z,97305.34
2022-11-19T07:17:01.441Z,97306.28
2022-11-19T07:19:31.674Z,97308.34
2022-11-19T07:22:04.386Z,97314.38
2022-11-19T07:24:34.436Z,97309.31
2022-11-19T07:27:04.556Z,97310.19
2022-11-19T07:29:34.689Z,97314.72
2022-11-19T07:32:04.719Z,97304.66
2022-11-19T07:34:34.772Z,97315.38
2022-11-19T07:37:07.569Z,97312.19
2022-11-19T07:39:37.606Z,97322.72
2022-11-19T07:42:20.255Z,97318.81
2022-11-19T07:44:55.487Z,97324.63
2022-11-19T07:47:25.542Z,97327.38
2022-11-19T07:49:55.560Z,97332.44
2022-11-19T07:52:28.436Z,97327.94
2022-11-19T07:54:58.641Z,97323.09
2022-11-19T07:57:30.462Z,97332.06
2022-11-19T08:00:00.818Z,97330.16
2022-11-19T08:02:30.828Z,97332.19
2022-11-19T08:05:00.906Z,97330.41
2022-11-19T08:07:33.687Z,97337.75
2022-11-19T08:10:03.765Z,97334.69
2022-11-19T08:12:33.771Z,97339.25
2022-11-19T08:15:03.792Z,97341.97
2022-11-19T08:17:46.917Z,97343.41
2022-11-19T08:20:18.256Z,97348.47
2022-11-19T08:22:50.893Z,97346.25
2022-11-19T08:25:20.991Z,97341.84
2022-11-19T08:27:51.013Z,97347.09
2022-11-19T08:30:21.193Z,97349.63
2022-11-19T08:32:51.215Z,97343.38
2022-11-19T08:35:21.306Z,97351.78
2022-11-19T08:37:54.228Z,97359.00
2022-11-19T08:40:24.325Z,97364.03
2022-11-19T08:43:01.326Z,97363.06
2022-11-19T08:45:35.000Z,97374.00
2022-11-19T08:48:12.188Z,97363.66
2022-11-19T08:50:47.541Z,97360.75
2022-11-19T08:53:20.282Z,97365.13
2022-11-19T08:55:54.217Z,97368.97
2022-11-19T08:58:24.450Z,97368.25
2022-11-19T09:00:54.504Z,97368.25
2022-11-19T09:03:24.609Z,97363.97
2022-11-19T09:06:02.037Z,97367.88
2022-11-19T09:08:35.577Z,97370.63
2022-11-19T09:11:10.310Z,97374.16
2022-11-19T09:13:41.999Z,97374.16
2022-11-19T09:16:13.559Z,97362.38
2022-11-19T09:18:43.923Z,97372.13
2022-11-19T09:21:15.277Z,97378.38
2022-11-19T09:23:47.903Z,97380.69
2022-11-19T09:26:20.934Z,97386.13
2022-11-19T09:28:51.138Z,97380.25
2022-11-19T09:31:23.066Z,97387.53
2022-11-19T09:33:55.427Z,97396.03
2022-11-19T09:36:25.737Z,97395.88
2022-11-19T09:39:02.271Z,97400.75
2022-11-19T09:41:46.950Z,97393.94
2022-11-19T09:44:42.931Z,97400.03
2022-11-19T09:47:29.852Z,97402.97
2022-11-19T09:50:15.958Z,97396.88
2022-11-19T09:52:52.029Z,97397.00
2022-11-19T09:55:33.945Z,97398.38
2022-11-19T09:58:08.813Z,97401.13
2022-11-19T10:00:39.543Z,97399.19
2022-11-19T10:03:17.697Z,97386.31
2022-11-19T10:06:12.984Z,97395.78
2022-11-19T10:09:05.660Z,97386.69
2022-11-19T10:11:56.797Z,97389.59
2022-11-19T10:15:02.661Z,97399.22
2022-11-19T10:17:48.292Z,97397.06
2022-11-19T10:20:55.964Z,97392.63
2022-11-19T10:23:34.090Z,97384.22
2022-11-19T10:26:13.720Z,97383.09
2022-11-19T10:28:56.234Z,97383.84
2022-11-19T10:31:38.175Z,97385.41
2022-11-19T10:34:19.299Z,97380.69
2022-11-19T10:36:56.466Z,97388.13
2022-11-19T10:39:36.474Z,97388.19
2022-11-19T10:42:20.772Z,97383.69
2022-11-19T10:45:00.833Z,97381.84
2022-11-19T10:47:40.206Z,97378.91
2022-11-19T10:50:19.578Z,97377.69
2022-11-19T10:52:55.823Z,97385.19
2022-11-19T10:55:34.138Z,97373.16
2022-11-19T10:58:16.755Z,97376.16
2022-11-19T11:00:50.752Z,97365.81
2022-11-19T11:03:28.188Z,97371.41
2022-11-19T11:06:06.444Z,97367.16
2022-11-19T11:08:49.596Z,97361.56
2022-11-19T11:11:48.943Z,97360.47
2022-11-19T11:14:34.242Z,97362.28
2022-11-19T11:17:19.218Z,97367.47
2022-11-19T11:20:01.163Z,97362.91
2022-11-19T11:22:31.980Z,97362.91
2022-11-19T11:25:07.296Z,97358.53
2022-11-19T11:27:38.844Z,97363.59
2022-11-19T11:30:26.645Z,97362.97
2022-11-19T11:32:59.358Z,97361.38
2022-11-19T11:35:35.637Z,97361.22
2022-11-19T11:38:07.929Z,97359.47
2022-11-19T11:40:38.506Z,97360.47
2022-11-19T11:43:08.908Z,97361.59
2022-11-19T11:45:40.973Z,97364.06
2022-11-19T11:48:24.396Z,97365.63
2022-11-19T11:50:54.604Z,97356.91
2022-11-19T11:53:35.127Z,97360.44
2022-11-19T11:56:05.941Z,97358.47
2022-11-19T11:58:37.392Z,97359.28
2022-11-19T12:01:18.371Z,97360.25
2022-11-19T12:04:01.929Z,97355.47
2022-11-19T12:06:44.879Z,97360.38
2022-11-19T12:09:29.110Z,97360.38
2022-11-19T12:12:06.871Z,97363.19
2022-11-19T12:14:48.108Z,97370.75
2022-11-19T12:17:33.400Z,97364.09
2022-11-19T12:20:29.632Z,97359.34
2022-11-19T12:23:28.396Z,97357.78
2022-11-19T12:26:16.518Z,97361.31
2022-11-19T12:29:08.911Z,97363.09
2022-11-19T12:32:07.668Z,97361.22
2022-11-19T12:34:57.712Z,97359.06
2022-11-19T12:37:49.606Z,97360.75
2022-11-19T12:40:39.661Z,97363.13
2022-11-19T12:43:31.622Z,97360.00
2022-11-19T12:46:13.285Z,97358.59
2022-11-19T12:49:06.544Z,97358.81
2022-11-19T12:51:54.627Z,97353.81
2022-11-19T12:54:56.661Z,97362.19
2022-11-19T12:57:46.700Z,97361.25
2022-11-19T13:00:21.624Z,97366.72
2022-11-19T13:03:05.516Z,97362.81
2022-11-19T13:05:46.392Z,97370.59
2022-11-19T13:08:24.779Z,97372.84
2022-11-19T13:11:10.098Z,97370.66
2022-11-19T13:13:47.022Z,97361.38
2022-11-19T13:16:21.072Z,97364.50
2022-11-19T13:18:57.622Z,97355.06
2022-11-19T13:21:38.450Z,97355.44
2022-11-19T13:24:22.567Z,97357.28
2022-11-19T13:26:59.028Z,97354.53
2022-11-19T13:29:42.492Z,97350.56
2022-11-19T13:32:25.670Z,97351.69
2022-11-19T13:35:22.734Z,97357.50
2022-11-19T13:38:03.233Z,97358.31
2022-11-19T13:40:40.183Z,97354.41
2022-11-19T13:43:33.293Z,97362.50
2022-11-19T13:46:29.589Z,97360.56
2022-11-19T13:49:06.248Z,97364.47
2022-11-19T13:51:47.580Z,97367.34
2022-11-19T13:54:28.361Z,97359.47
2022-11-19T13:57:01.460Z,97361.09
2022-11-19T13:59:41.712Z,97361.72
2022-11-19T14:02:55.932Z,97362.22
2022-11-19T14:06:18.638Z,97362.06
2022-11-19T14:09:22.708Z,97367.19
2022-11-19T14:12:26.544Z,97366.38
2022-11-19T14:15:42.305Z,97366.81
2022-11-19T14:18:40.223Z,97367.25
2022-11-19T14:22:05.851Z,97370.81
2022-11-19T14:25:11.450Z,97370.06
2022-11-19T14:27:41.790Z,97379.44
2022-11-19T14:30:21.468Z,97372.09
2022-11-19T14:32:54.727Z,97374.50
2022-11-19T14:35:47.047Z,97379.19
2022-11-19T14:38:50.260Z,97383.44
2022-11-19T14:41:35.718Z,97381.16
2022-11-19T14:44:14.178Z,97386.63
2022-11-19T14:46:50.927Z,97379.03
2022-11-19T14:49:38.125Z,97390.72
2022-11-19T14:52:25.327Z,97377.66
2022-11-19T14:54:59.720Z,97377.25
2022-11-19T14:57:35.443Z,97386.25
2022-11-19T15:00:10.611Z,97387.59
2022-11-19T15:02:48.252Z,97385.28
2022-11-19T15:05:23.582Z,97390.19
2022-11-19T15:08:15.034Z,97385.84
2022-11-19T15:11:07.278Z,97381.56
2022-11-19T15:13:39.298Z,97391.91
2022-11-19T15:16:17.431Z,97387.22
2022-11-19T15:19:29.035Z,97388.38
2022-11-19T15:22:38.100Z,97390.91
2022-11-19T15:25:30.982Z,97392.78
2022-11-19T15:28:47.124Z,97390.19
2022-11-19T15:31:46.292Z,97377.13
2022-11-19T15:35:09.785Z,97385.72
2022-11-19T15:37:51.347Z,97381.34
2022-11-19T15:40:29.024Z,97381.88
2022-11-19T15:43:14.796Z,97378.31
2022-11-19T15:45:52.864Z,97376.13
2022-11-19T15:48:34.043Z,97375.47
2022-11-19T15:51:09.502Z,97380.53
2022-11-19T15:53:39.801Z,97379.19
2022-11-19T15:56:15.348Z,97380.19
2022-11-19T15:58:50.444Z,97382.13
2022-11-19T16:01:23.341Z,97381.41
2022-11-19T16:03:56.539Z,97379.69
2022-11-19T16:06:31.980Z,97382.22
2022-11-19T16:09:06.690Z,97386.34
2022-11-19T16:11:53.346Z,97390.81
2022-11-19T16:14:38.555Z,97395.16
2022-11-19T16:17:28.344Z,97391.78
2022-11-19T16:20:20.917Z,97398.03
2022-11-19T16:23:00.714Z,97389.81
2022-11-19T16:25:37.379Z,97390.34
2022-11-19T16:28:13.285Z,97396.56
2022-11-19T16:30:48.573Z,97396.75
2022-11-19T16:33:23.141Z,97403.25
2022-11-19T16:35:55.880Z,97411.78
2022-11-19T16:38:30.953Z,97408.44
2022-11-19T16:41:13.753Z,97408.84
2022-11-19T16:43:48.885Z,97403.84
2022-11-19T16:46:24.373Z,97414.72
2022-11-19T16:49:00.586Z,97406.09
2022-11-19T16:51:38.353Z,97419.69
2022-11-19T16:54:13.232Z,97412.66
2022-11-19T16:56:47.865Z,97419.25
2022-11-19T16:59:24.424Z,97417.81
2022-11-19T17:01:59.711Z,97419.63
2022-11-19T17:04:34.378Z,97419.25
2022-11-19T17:07:04.627Z,97419.09
2022-11-19T17:09:45.321Z,97424.22
2022-11-19T17:12:28.615Z,97430.38
2022-11-19T17:15:01.678Z,97438.41
2022-11-19T17:17:41.456Z,97431.78
2022-11-19T17:21:02.208Z,97434.84
2022-11-19T17:23:35.540Z,97439.22
2022-11-19T17:26:12.033Z,97444.63
2022-11-19T17:28:46.745Z,97439.06
2022-11-19T17:31:23.482Z,97442.09
2022-11-19T17:33:57.264Z,97438.25
2022-11-19T17:36:28.535Z,97438.63
2022-11-19T17:38:59.051Z,97435.47
2022-11-19T17:41:44.906Z,97442.34
2022-11-19T17:44:35.015Z,97439.81
2022-11-19T17:47:13.540Z,97447.16
2022-11-19T17:49:51.599Z,97449.13
2022-11-19T17:52:28.067Z,97450.56
2022-11-19T17:55:01.543Z,97452.97
2022-11-19T17:57:41.155Z,97448.44
2022-11-19T18:00:14.885Z,97448.44
2022-11-19T18:02:44.958Z,97459.13
2022-11-19T18:05:23.185Z,97460.97
2022-11-19T18:07:53.360Z,97465.03
2022-11-19T18:10:23.441Z,97463.66
2022-11-19T18:12:56.308Z,97458.31
2022-11-19T18:15:26.497Z,97465.38
2022-11-19T18:17:59.761Z,97476.78
2022-11-19T18:20:29.864Z,97479.91
2022-11-19T18:23:00.313Z,97473.84
2022-11-19T18:25:30.698Z,97477.31
2022-11-19T18:28:03.604Z,97483.75
2022-11-19T18:30:33.786Z,97482.63
2022-11-19T18:33:03.912Z,97474.34
2022-11-19T18:35:33.958Z,97474.63
2022-11-19T18:38:04.511Z,97473.22
2022-11-19T18:40:34.757Z,97474.88
2022-11-19T18:43:19.873Z,97481.44
2022-11-19T18:45:50.112Z,97482.81
2022-11-19T18:48:20.421Z,97487.91
2022-11-19T18:50:50.482Z,97482.34
2022-11-19T18:53:20.540Z,97478.47
2022-11-19T18:55:51.072Z,97493.56
2022-11-19T18:58:23.684Z,97494.00
2022-11-19T19:00:55.589Z,97486.03
2022-11-19T19:03:25.783Z,97490.69
2022-11-19T19:05:55.937Z,97482.22
2022-11-19T19:08:26.239Z,97491.63
2022-11-19T19:11:16.607Z,97491.28
2022-11-19T19:13:47.264Z,97490.31
2022-11-19T19:16:17.549Z,97501.69
2022-11-19T19:18:47.732Z,97502.09
2022-11-19T19:21:21.330Z,97502.25
2022-11-19T19:23:52.495Z,97500.97
2022-11-19T19:26:24.220Z,97504.78
2022-11-19T19:28:57.936Z,97507.78
2022-11-19T19:31:28.271Z,97507.94
2022-11-19T19:33:58.573Z,97508.13
2022-11-19T19:36:29.168Z,97505.59
2022-11-19T19:38:59.431Z,97510.91
2022-11-19T19:41:30.726Z,97506.22
2022-11-19T19:44:07.058Z,97516.19
2022-11-19T19:46:37.812Z,97515.81
2022-11-19T19:49:08.023Z,97512.84
2022-11-19T19:51:38.163Z,97516.41
2022-11-19T19:54:08.606Z,97520.34
2022-11-19T19:56:38.875Z,97511.97
2022-11-19T19:59:15.597Z,97526.88
2022-11-19T20:01:50.939Z,97527.31
2022-11-19T20:04:22.255Z,97532.91
2022-11-19T20:06:52.682Z,97532.56
2022-11-19T20:09:23.284Z,97532.56
2022-11-19T20:11:53.632Z,97530.63
2022-11-19T20:14:26.828Z,97530.19
2022-11-19T20:16:56.844Z,97528.09
2022-11-19T20:19:27.044Z,97526.88
2022-11-19T20:21:57.160Z,97530.75
2022-11-19T20:24:27.281Z,97533.16
2022-11-19T20:26:57.378Z,97540.44
2022-11-19T20:29:30.092Z,97535.38
2022-11-19T20:32:00.108Z,97541.03
2022-11-19T20:34:30.153Z,97536.84
2022-11-19T20:37:00.311Z,97534.47
2022-11-19T20:39:30.431Z,97537.72
2022-11-19T20:42:12.948Z,97534.00
2022-11-19T20:44:45.618Z,97541.09
2022-11-19T20:47:15.593Z,97543.16
2022-11-19T20:49:45.602Z,97538.00
2022-11-19T20:52:17.244Z,97545.41
2022-11-19T20:54:48.071Z,97545.59
2022-11-19T20:57:18.884Z,97546.97
2022-11-19T20:59:51.732Z,97552.03
2022-11-19T21:02:21.909Z,97552.66
2022-11-19T21:04:52.140Z,97555.53
2022-11-19T21:07:22.934Z,97555.34
2022-11-19T21:09:53.097Z,97556.66
2022-11-19T21:12:24.008Z,97554.97
2022-11-19T21:14:56.904Z,97553.41
2022-11-19T21:17:27.041Z,97557.69
2022-11-19T21:19:57.217Z,97559.50
2022-11-19T21:22:27.323Z,97556.72
2022-11-19T21:24:57.399Z,97556.44
2022-11-19T21:27:27.475Z,97552.56
2022-11-19T21:30:00.126Z,97567.03
2022-11-19T21:32:30.186Z,97559.41
2022-11-19T21:35:00.321Z,97559.72
2022-11-19T21:37:30.635Z,97556.72
2022-11-19T21:40:00.695Z,97558.44
2022-11-19T21:42:32.054Z,97558.53
2022-11-19T21:45:04.751Z,97563.59
2022-11-19T21:47:34.903Z,97561.06
2022-11-19T21:50:04.962Z,97559.94
2022-11-19T21:52:35.035Z,97566.81
2022-11-19T21:55:05.084Z,97565.50
2022-11-19T21:57:35.183Z,97559.59
2022-11-19T22:00:10.530Z,97565.38
2022-11-19T22:02:42.985Z,97565.22
2022-11-19T22:05:13.278Z,97570.38
2022-11-19T22:07:46.331Z,97572.28
2022-11-19T22:10:16.916Z,97568.91
2022-11-19T22:12:47.356Z,97569.22
2022-11-19T22:15:20.206Z,97568.75
2022-11-19T22:17:50.505Z,97573.13
2022-11-19T22:20:20.763Z,97566.72
2022-11-19T22:22:50.806Z,97567.00
2022-11-19T22:25:21.300Z,97561.88
2022-11-19T22:27:51.377Z,97557.09
2022-11-19T22:30:24.057Z,97565.31
2022-11-19T22:32:56.087Z,97558.56
2022-11-19T22:35:26.124Z,97563.19
2022-11-19T22:37:56.157Z,97563.53
2022-11-19T22:40:26.181Z,97563.88
2022-11-19T22:42:56.211Z,97562.34
2022-11-19T22:45:28.904Z,97561.69
2022-11-19T22:47:58.962Z,97551.31
2022-11-19T22:50:29.034Z,97557.06
2022-11-19T22:52:59.034Z,97553.19
2022-11-19T22:55:29.083Z,97559.69
2022-11-19T22:57:59.393Z,97551.50
2022-11-19T23:00:48.097Z,97553.56
2022-11-19T23:03:20.716Z,97544.94
2022-11-19T23:05:53.879Z,97555.09
2022-11-19T23:08:24.972Z,97551.84
2022-11-19T23:11:01.474Z,97558.28
2022-11-19T23:13:34.348Z,97555.28
2022-11-19T23:16:11.001Z,97557.66
2022-11-19T23:18:43.969Z,97559.41
2022-11-19T23:21:17.598Z,97555.28
2022-11-19T23:23:48.072Z,97557.72
2022-11-19T23:26:22.144Z,97548.94
2022-11-19T23:28:52.727Z,97551.44
2022-11-19T23:31:28.408Z,97552.75
2022-11-19T23:33:59.861Z,97557.50
2022-11-19T23:36:32.308Z,97554.69
2022-11-19T23:39:02.941Z,97552.50
2022-11-19T23:41:35.972Z,97559.47
2022-11-19T23:44:06.304Z,97556.34
2022-11-19T23:46:39.784Z,97561.09
2022-11-19T23:49:10.174Z,97560.47
2022-11-19T23:51:41.892Z,97555.13
2022-11-19T23:54:16.351Z,97561.75
2022-11-19T23:56:46.623Z,97553.09
2022-11-19T23:59:18.602Z,97559.06
